To NAV CANADA Home Page Login to a new session Search on AWWS site Feedback and Comments Disclaimer Vers la page française équivalente Tips FAQ What's new on the site To the Forecasts and Observations / NOTAM section To "File a Flight Plan" website Publications and other links Update of the User's profile FIC Telephone Numbers My Weather Data Folder Route Weather Data Regional Weather Data Local Weather Data To the Forecasts and Observations / NOTAM section
Request Generated 10/17/2017 at 01:55:03 UTC . Weather information available at that time is displayed.

METAR/TAF

EARLTON/EARLTON (TIMISKAMING REGIONAL)/ON    (show WxCam)

METAR CYXR 170100Z AUTO 21013KT 9SM OVC090 06/01 A3005 RMK SLP189=
METAR CYXR 170000Z AUTO 17008KT 9SM BKN055 OVC072 06/02 A3006 RMK
SLP193=
SPECI CYXR 162354Z AUTO 17008KT 9SM FEW041 OVC050 05/02 A3006 RMK
SLP194=
SPECI CYXR 162323Z AUTO 18007KT 9SM -RA FEW042 BKN060 OVC074 06/02
A3007 RMK SLP196=
METAR CYXR 162300Z AUTO 19004KT 9SM FEW042 BKN065 BKN077 OVC110 06/01
A3008 RMK SLP198=

*** REMARK        : Forecast period has ended; this was the last TAF issued
*** REMARQUE : La période de prévision est échue; ceci était le dernier TAF qui a été émis
TAF CYXR 161738Z 1618/1624 26008KT P6SM FEW060 OVC130 TEMPO 1618/1622
BKN060
FM162200 20012KT P6SM FEW020 BKN060 TEMPO 1622/1624 6SM -SHRA BR
BKN020 OVC060
RMK FCST BASED ON AUTO OBS. NXT FCST WILL BE ISSUED AT 171145Z=
Your time UTC time
Weather data provided by Environment Canada and NAV CANADA